Burwell, NE

10:05 PM CDT on July 13, 2014 (GMT -0500)
The O'Neill Municipal-Baker (KONL) Elev 2031 ft | 42.47 °N, 98.69 °W | Change Station

Current weather conditions updated 10 minutes ago

Scattered Clouds
Scattered Clouds
71 °F
Feels Like 71 °F
N
7
Wind Variable Wind from North

Tomorrow is forecast to be Much Cooler than today.

Today
High -- | Low -- °F
--% Chance of Precip.
Yesterday
High -- | Low -- °F
Precip. -- in
6:13 AM 9:10 PM
Waning Gibbous, 96% visible
Pressure 30.05 in
Visibility 10.0 miles
Clouds Scattered Clouds 9000 ft
Dew Point 59 °F
Humidity 66%
Rainfall 0.00 in
Snow Depth Not available.
UV 0 out of 12
Pollen 4.40 out of 12
Air Quality Not available.
Flu Activity Sporadic
METAR KONL 140255Z AUTO 01006KT 10SM SCT090 22/15 A3005 RMK AO2 T02180152

More Conditions Fewer Conditions

Pressure 30.05 in
Visibility 10.0 miles
Clouds Scattered Clouds 9000 ft
Dew Point 59 °F
Humidity 66%
Rainfall 0.00 in
Snow Depth Not available.
UV 0 out of 12
Pollen 4.40 out of 12
Air Quality Not available.
Flu Activity Sporadic
METAR KONL 140255Z AUTO 01006KT 10SM SCT090 22/15 A3005 RMK AO2 T02180152

More Conditions Fewer Conditions

10-Day Weather Forecast

Almanac

Astronomy

Jul. 13, 2014 Rise Set
Actual Time 6:13 AM CDT 9:10 PM CDT
Civil Twilight 5:40 AM CDT 9:44 PM CDT
Nautical Twilight 4:57 AM CDT 10:26 PM CDT
Astronomical Twilight 4:08 AM CDT 11:15 PM CDT
Moon 9:57 PM CDT (7/13) 7:47 AM CDT (7/13)
Length of Visible Light 16h 04m
Length of Day
14h 57m
Tomorrow will be 1m 22s shorter.
Waning Gibbous, 96% of the Moon is Illuminated
Today
Waning Gibbous
Jul 18
Last Quarter
Jul 26
New
Aug 3
First Quarter
Aug 10
Full

Today's Extremes

State Highs State Lows

Community

WunderPhotos

Upload Photos

1,733,505 photos uploaded!

Nearby

Snow Depth

Station Depth Elevation
No new snow has been reported.

Earthquake Activity

City Distance Mag. Time & Date
No recent earthquake activity has been reported nearby.
Minimum magnitude displayed is 2.5.

Coastal Water Temperatures

Place Temperature
No Stations Reporting

Nearby Weather Stations

Station Location Temp. Heat Index Dew Point Humidity Wind Precip. Elev Updated Type
Sargent, Sargent, NE 72.3 °F 74 °F 64 °F 76% ENE  at  0.0 mph 0.00 in / hr 2314 ft 9:55 PM CDT Normal

Show More Stations Show Fewer Stations